Time;durP1;ratioP1;P1;durP2;ratioP2;P2;SDS_P1;SDS_P2;PMS_P1;PMS_P2;Temp;Humidity;BMP_temperature;BMP_pressure;BME280_temperature;BME280_humidity;BME280_pressure;Samples;Min_cycle;Max_cycle;Signal;HPM_P1;HPM_P2
2022/08/03 00:02:38;;;;;;;;;;;;;;;;;;5027339;28;19909;-82
2022/08/03 00:05:24;;;;;;;;;;;;;;;;;;5030213;28;19924;-81
2022/08/03 00:08:11;;;;;;;;;;;;;;;;;;5025583;28;19925;-81
2022/08/03 00:10:57;;;;;;;;;;;;;;;;;;5014787;28;19909;-80
2022/08/03 00:13:44;;;;;;;;;;;;;;;;;;5030648;28;20274;-80
2022/08/03 00:16:30;;;;;;;;;;;;;;;;;;5025426;28;19913;-79
2022/08/03 00:19:17;;;;;;;;;;;;;;;;;;5030192;28;19920;-79
2022/08/03 00:22:03;;;;;;;;;;;;;;;;;;5021293;28;19914;-81
2022/08/03 00:24:50;;;;;;;;;;;;;;;;;;5020546;28;19921;-80
2022/08/03 00:27:36;;;;;;;;;;;;;;;;;;5030883;28;19913;-82
2022/08/03 00:30:23;;;;;;;;;;;;;;;;;;5026574;28;19922;-83
2022/08/03 00:33:09;;;;;;;;;;;;;;;;;;5025190;28;19917;-83
2022/08/03 00:35:56;;;;;;;;;;;;;;;;;;5027960;28;19913;-84
2022/08/03 00:38:42;;;;;;;;;;;;;;;;;;5031234;28;19918;-83
2022/08/03 00:41:29;;;;;;;;;;;;;;;;;;5031238;28;19913;-82
2022/08/03 00:44:15;;;;;;;;;;;;;;;;;;5030398;28;19919;-84
2022/08/03 00:47:02;;;;;;;;;;;;;;;;;;5022288;28;19921;-84
2022/08/03 00:49:48;;;;;;;;;;;;;;;;;;5027151;28;19917;-80
2022/08/03 00:52:35;;;;;;;;;;;;;;;;;;5023883;28;19913;-82
2022/08/03 00:55:21;;;;;;;;;;;;;;;;;;5029384;28;19916;-86
2022/08/03 00:58:09;;;;;;;;;;;;;;;;;;5031149;28;19910;-85
2022/08/03 01:00:56;;;;;;;;;;;;;;;;;;5029988;28;19910;-86
2022/08/03 01:03:42;;;;;;;;;;;;;;;;;;5031374;28;19923;-85
2022/08/03 01:06:29;;;;;;;;;;;;;;;;;;5031254;28;19925;-85
2022/08/03 01:09:15;;;;;;;;;;;;;;;;;;5026884;28;19913;-86
2022/08/03 01:12:02;;;;;;;;;;;;;;;;;;5011505;28;19913;-86
2022/08/03 01:14:49;;;;;;;;;;;;;;;;;;5009176;28;20235;-87
2022/08/03 01:17:35;;;;;;;;;;;;;;;;;;5029663;28;19917;-86
2022/08/03 01:20:21;;;;;;;;;;;;;;;;;;5030996;28;19915;-86
2022/08/03 01:23:08;;;;;;;;;;;;;;;;;;5024961;28;19913;-86
2022/08/03 01:25:55;;;;;;;;;;;;;;;;;;5026777;28;19923;-86
2022/08/03 01:28:41;;;;;;;;;;;;;;;;;;5029547;28;19909;-85
2022/08/03 01:31:28;;;;;;;;;;;;;;;;;;5029979;28;19909;-84
2022/08/03 01:34:14;;;;;;;;;;;;;;;;;;5027129;28;20407;-83
2022/08/03 01:37:01;;;;;;;;;;;;;;;;;;5014983;28;19909;-84
2022/08/03 01:39:47;;;;;;;;;;;;;;;;;;5032803;28;19916;-87
2022/08/03 01:42:34;;;;;;;;;;;;;;;;;;5027219;28;19913;-85
2022/08/03 01:45:20;;;;;;;;;;;;;;;;;;5024006;28;19930;-82
2022/08/03 01:48:07;;;;;;;;;;;;;;;;;;5019292;28;19917;-83
2022/08/03 01:50:53;;;;;;;;;;;;;;;;;;5037566;28;20018;-83
2022/08/03 01:53:43;;;;;;;;;;;;;;;;;;5014685;28;19920;-84
2022/08/03 01:56:29;;;;;;;;;;;;;;;;;;5023183;28;19909;-82
2022/08/03 01:59:16;;;;;;;;;;;;;;;;;;5026423;28;19919;-82
2022/08/03 02:02:02;;;;;;;;;;;;;;;;;;5026200;28;19924;-82
2022/08/03 02:04:49;;;;;;;;;;;;;;;;;;5010660;28;19909;-82
2022/08/03 02:07:35;;;;;;;;;;;;;;;;;;5025789;28;19931;-82
2022/08/03 02:10:22;;;;;;;;;;;;;;;;;;5029712;28;19909;-81
2022/08/03 02:13:08;;;;;;;;;;;;;;;;;;5011216;28;19909;-82
2022/08/03 02:15:55;;;;;;;;;;;;;;;;;;5028759;28;19955;-83
2022/08/03 02:18:41;;;;;;;;;;;;;;;;;;5027652;28;19920;-83
2022/08/03 02:21:28;;;;;;;;;;;;;;;;;;5027371;28;19924;-82
2022/08/03 02:24:14;;;;;;;;;;;;;;;;;;5030052;28;20384;-84
2022/08/03 02:27:00;;;;;;;;;;;;;;;;;;5025456;28;19925;-84
2022/08/03 02:29:47;;;;;;;;;;;;;;;;;;5027869;28;20400;-81
2022/08/03 02:32:33;;;;;;;;;;;;;;;;;;5029324;28;20381;-83
2022/08/03 02:35:20;;;;;;;;;;;;;;;;;;5014592;28;19919;-82
2022/08/03 02:38:06;;;;;;;;;;;;;;;;;;5021063;28;20702;-81
2022/08/03 02:40:53;;;;;;;;;;;;;;;;;;5023148;28;19913;-81
2022/08/03 02:43:39;;;;;;;;;;;;;;;;;;5024391;28;20304;-82
2022/08/03 02:46:26;;;;;;;;;;;;;;;;;;5023091;28;19921;-81
2022/08/03 02:49:12;;;;;;;;;;;;;;;;;;5025610;28;19916;-81
2022/08/03 02:51:59;;;;;;;;;;;;;;;;;;5026822;28;20467;-82
2022/08/03 02:54:45;;;;;;;;;;;;;;;;;;5024658;28;19952;-82
2022/08/03 02:57:31;;;;;;;;;;;;;;;;;;5026758;28;19934;-83
2022/08/03 03:00:18;;;;;;;;;;;;;;;;;;5021475;28;19916;-82
2022/08/03 03:03:05;;;;;;;;;;;;;;;;;;5025045;28;19913;-83
2022/08/03 03:05:51;;;;;;;;;;;;;;;;;;5026358;28;19921;-82
2022/08/03 03:08:38;;;;;;;;;;;;;;;;;;5028336;28;19924;-82
2022/08/03 03:11:24;;;;;;;;;;;;;;;;;;5025874;28;20392;-81
2022/08/03 03:14:12;;;;;;;;;;;;;;;;;;5030043;28;20369;-82
2022/08/03 03:16:58;;;;;;;;;;;;;;;;;;5020770;28;20326;-82
2022/08/03 03:19:45;;;;;;;;;;;;;;;;;;5023444;28;19917;-82
2022/08/03 03:22:31;;;;;;;;;;;;;;;;;;5023457;28;19909;-83
2022/08/03 03:25:18;;;;;;;;;;;;;;;;;;5025132;28;20270;-83
2022/08/03 03:28:04;;;;;;;;;;;;;;;;;;5025743;28;19919;-83
2022/08/03 03:30:51;;;;;;;;;;;;;;;;;;5024903;28;19916;-83
2022/08/03 03:33:37;;;;;;;;;;;;;;;;;;5025436;28;19943;-83
2022/08/03 03:36:24;;;;;;;;;;;;;;;;;;5020349;28;19925;-84
2022/08/03 03:39:10;;;;;;;;;;;;;;;;;;5024530;28;19920;-84
2022/08/03 03:41:57;;;;;;;;;;;;;;;;;;5019795;28;19917;-84
2022/08/03 03:44:43;;;;;;;;;;;;;;;;;;5012099;28;19917;-84
2022/08/03 03:47:30;;;;;;;;;;;;;;;;;;5025323;28;19931;-84
2022/08/03 03:50:16;;;;;;;;;;;;;;;;;;5024180;28;19920;-85
2022/08/03 03:53:03;;;;;;;;;;;;;;;;;;5020856;28;19917;-85
2022/08/03 03:55:49;;;;;;;;;;;;;;;;;;5021723;28;20351;-85
2022/08/03 03:58:36;;;;;;;;;;;;;;;;;;5027300;28;19914;-85
2022/08/03 04:01:22;;;;;;;;;;;;;;;;;;5028017;28;20420;-86
2022/08/03 04:13:24;;;;;;;;;;;;;;;;;;5025680;28;19913;-85
2022/08/03 04:16:11;;;;;;;;;;;;;;;;;;5025189;28;19919;-85
2022/08/03 04:18:57;;;;;;;;;;;;;;;;;;5023750;28;19917;-85
2022/08/03 04:21:43;;;;;;;;;;;;;;;;;;5032619;28;19928;-85
2022/08/03 04:24:30;;;;;;;;;;;;;;;;;;5028982;28;19913;-85
2022/08/03 04:27:17;;;;;;;;;;;;;;;;;;5012438;28;19949;-80
2022/08/03 04:30:03;;;;;;;;;;;;;;;;;;5029914;28;20224;-81
2022/08/03 04:32:50;;;;;;;;;;;;;;;;;;5030455;28;20556;-80
2022/08/03 04:35:37;;;;;;;;;;;;;;;;;;5028757;28;19916;-80
2022/08/03 04:38:23;;;;;;;;;;;;;;;;;;5030383;28;19909;-81
2022/08/03 04:41:10;;;;;;;;;;;;;;;;;;5029266;28;19961;-82
2022/08/03 04:43:56;;;;;;;;;;;;;;;;;;5025304;28;20270;-84
2022/08/03 04:46:43;;;;;;;;;;;;;;;;;;5029551;28;19917;-84
2022/08/03 04:49:29;;;;;;;;;;;;;;;;;;5024293;28;19931;-85
2022/08/03 04:52:16;;;;;;;;;;;;;;;;;;5027939;28;19915;-80
2022/08/03 04:55:02;;;;;;;;;;;;;;;;;;5026924;28;20352;-83
2022/08/03 04:57:49;;;;;;;;;;;;;;;;;;5020505;28;19916;-81
2022/08/03 05:00:35;;;;;;;;;;;;;;;;;;5014750;28;20622;-81
2022/08/03 05:03:22;;;;;;;;;;;;;;;;;;5026246;28;19920;-81
2022/08/03 05:06:08;;;;;;;;;;;;;;;;;;5018745;28;19922;-80
2022/08/03 05:08:55;;;;;;;;;;;;;;;;;;5025832;28;19929;-84
2022/08/03 05:11:41;;;;;;;;;;;;;;;;;;5028441;28;20628;-83
2022/08/03 05:14:28;;;;;;;;;;;;;;;;;;5028840;28;19940;-83
2022/08/03 05:17:14;;;;;;;;;;;;;;;;;;5028634;28;19921;-83
2022/08/03 05:20:02;;;;;;;;;;;;;;;;;;5025498;28;19924;-83
2022/08/03 05:22:49;;;;;;;;;;;;;;;;;;5022523;28;19920;-82
2022/08/03 05:25:35;;;;;;;;;;;;;;;;;;5025137;28;20412;-82
2022/08/03 05:28:22;;;;;;;;;;;;;;;;;;5029363;28;19920;-83
2022/08/03 05:31:08;;;;;;;;;;;;;;;;;;5024796;28;19916;-83
2022/08/03 05:33:55;;;;;;;;;;;;;;;;;;5022208;28;19914;-82
2022/08/03 05:36:42;;;;;;;;;;;;;;;;;;5026846;28;19990;-79
2022/08/03 05:39:28;;;;;;;;;;;;;;;;;;5027573;28;19909;-81
2022/08/03 05:42:15;;;;;;;;;;;;;;;;;;5025035;28;19951;-84
2022/08/03 05:45:02;;;;;;;;;;;;;;;;;;5020784;28;19929;-83
2022/08/03 05:47:49;;;;;;;;;;;;;;;;;;5020448;28;19918;-83
2022/08/03 05:50:36;;;;;;;;;;;;;;;;;;5027956;28;19920;-85
2022/08/03 05:53:22;;;;;;;;;;;;;;;;;;5029795;28;19916;-84
2022/08/03 05:56:09;;;;;;;;;;;;;;;;;;5023900;28;19980;-83
2022/08/03 05:58:55;;;;;;;;;;;;;;;;;;5027376;28;19910;-85
2022/08/03 06:01:42;;;;;;;;;;;;;;;;;;5036746;28;20452;-87
2022/08/03 06:04:28;;;;;;;;;;;;;;;;;;5035390;28;19921;-89
2022/08/03 06:07:15;;;;;;;;;;;;;;;;;;5037773;28;19927;-87
2022/08/03 06:10:02;;;;;;;;;;;;;;;;;;5027011;28;19909;-84
2022/08/03 06:12:49;;;;;;;;;;;;;;;;;;5014863;28;20274;-85
2022/08/03 06:15:36;;;;;;;;;;;;;;;;;;5030348;28;19921;-85
2022/08/03 06:18:23;;;;;;;;;;;;;;;;;;5020828;28;19913;-86
2022/08/03 06:21:11;;;;;;;;;;;;;;;;;;5028146;28;21535;-83
2022/08/03 06:23:58;;;;;;;;;;;;;;;;;;5024681;28;19998;-81
2022/08/03 06:26:44;;;;;;;;;;;;;;;;;;5026758;28;19929;-82
2022/08/03 06:29:31;;;;;;;;;;;;;;;;;;5026648;28;19915;-83
2022/08/03 06:32:21;;;;;;;;;;;;;;;;;;5023112;28;19921;-82
2022/08/03 06:35:08;;;;;;;;;;;;;;;;;;5018517;28;20569;-80
2022/08/03 06:37:54;;;;;;;;;;;;;;;;;;5018753;28;19935;-80
2022/08/03 06:40:41;;;;;;;;;;;;;;;;;;5021861;28;19913;-81
2022/08/03 06:43:27;;;;;;;;;;;;;;;;;;5027437;28;19909;-80
2022/08/03 06:46:15;;;;;;;;;;;;;;;;;;5025023;28;19932;-82
2022/08/03 06:49:02;;;;;;;;;;;;;;;;;;5027960;28;19919;-85
2022/08/03 06:51:50;;;;;;;;;;;;;;;;;;5026016;28;19909;-83
2022/08/03 06:54:37;;;;;;;;;;;;;;;;;;5017151;28;19910;-84
2022/08/03 06:57:23;;;;;;;;;;;;;;;;;;5013543;28;19919;-84
2022/08/03 07:00:10;;;;;;;;;;;;;;;;;;5022385;28;19917;-84
2022/08/03 07:02:57;;;;;;;;;;;;;;;;;;5017786;28;19917;-86
2022/08/03 07:05:46;;;;;;;;;;;;;;;;;;5029781;28;19913;-85
2022/08/03 07:08:32;;;;;;;;;;;;;;;;;;5020148;28;19917;-84
2022/08/03 07:11:18;;;;;;;;;;;;;;;;;;5028875;28;19916;-85
2022/08/03 07:14:05;;;;;;;;;;;;;;;;;;5007327;28;19947;-83
2022/08/03 07:16:51;;;;;;;;;;;;;;;;;;5025096;28;19925;-82
2022/08/03 07:19:38;;;;;;;;;;;;;;;;;;5021899;28;20294;-81
2022/08/03 07:22:24;;;;;;;;;;;;;;;;;;5004603;28;19925;-81
2022/08/03 07:25:11;;;;;;;;;;;;;;;;;;5015666;28;20344;-82
2022/08/03 07:27:57;;;;;;;;;;;;;;;;;;5015762;28;19924;-82
2022/08/03 07:30:44;;;;;;;;;;;;;;;;;;5005280;28;20284;-81
2022/08/03 07:33:30;;;;;;;;;;;;;;;;;;5022548;28;19913;-82
2022/08/03 07:36:17;;;;;;;;;;;;;;;;;;5020118;28;19909;-81
2022/08/03 07:39:03;;;;;;;;;;;;;;;;;;5022441;28;20480;-82
2022/08/03 07:41:50;;;;;;;;;;;;;;;;;;5021494;28;19924;-83
2022/08/03 07:44:38;;;;;;;;;;;;;;;;;;5028241;28;19920;-80
2022/08/03 07:47:24;;;;;;;;;;;;;;;;;;5027442;28;19936;-82
2022/08/03 07:50:11;;;;;;;;;;;;;;;;;;5029468;28;19925;-81
2022/08/03 07:52:58;;;;;;;;;;;;;;;;;;5032641;28;20000;-84
2022/08/03 07:55:45;;;;;;;;;;;;;;;;;;5018830;28;19928;-85
2022/08/03 07:58:31;;;;;;;;;;;;;;;;;;5037386;28;19932;-84
2022/08/03 08:01:18;;;;;;;;;;;;;;;;;;5028934;28;19913;-83
2022/08/03 08:04:04;;;;;;;;;;;;;;;;;;5027999;28;20451;-83
2022/08/03 08:06:51;;;;;;;;;;;;;;;;;;5025230;28;19945;-80
2022/08/03 08:09:37;;;;;;;;;;;;;;;;;;5030030;28;19920;-81
2022/08/03 08:12:24;;;;;;;;;;;;;;;;;;5028629;28;19920;-81
2022/08/03 08:15:10;;;;;;;;;;;;;;;;;;5027582;28;19939;-78
2022/08/03 08:17:57;;;;;;;;;;;;;;;;;;5026699;28;19913;-80
2022/08/03 08:20:43;;;;;;;;;;;;;;;;;;5027128;28;19924;-83
2022/08/03 08:23:30;;;;;;;;;;;;;;;;;;5025961;28;20548;-78
2022/08/03 08:26:16;;;;;;;;;;;;;;;;;;5029090;28;19917;-79
2022/08/03 08:29:03;;;;;;;;;;;;;;;;;;5024978;28;19928;-80
2022/08/03 08:31:49;;;;;;;;;;;;;;;;;;5026273;28;19917;-82
2022/08/03 08:34:36;;;;;;;;;;;;;;;;;;5019879;28;19927;-82
2022/08/03 08:37:22;;;;;;;;;;;;;;;;;;5029018;28;20400;-81
2022/08/03 08:40:09;;;;;;;;;;;;;;;;;;5029465;28;19918;-80
2022/08/03 08:42:55;;;;;;;;;;;;;;;;;;5028585;28;19917;-82
2022/08/03 08:45:42;;;;;;;;;;;;;;;;;;5026369;28;20431;-79
2022/08/03 08:48:28;;;;;;;;;;;;;;;;;;5024776;28;19928;-78
2022/08/03 08:51:15;;;;;;;;;;;;;;;;;;5025934;28;19920;-79
2022/08/03 08:54:02;;;;;;;;;;;;;;;;;;5025893;28;19917;-81
2022/08/03 08:56:49;;;;;;;;;;;;;;;;;;5026419;28;20281;-79
2022/08/03 08:59:35;;;;;;;;;;;;;;;;;;5012585;28;19921;-81
2022/08/03 09:02:22;;;;;;;;;;;;;;;;;;5027913;28;19951;-80
2022/08/03 09:05:08;;;;;;;;;;;;;;;;;;5024455;28;19913;-78
2022/08/03 09:07:54;;;;;;;;;;;;;;;;;;5025778;28;19929;-76
2022/08/03 09:10:41;;;;;;;;;;;;;;;;;;5024909;28;19910;-77
2022/08/03 09:13:28;;;;;;;;;;;;;;;;;;5024437;28;19996;-84
2022/08/03 09:16:14;;;;;;;;;;;;;;;;;;5029336;28;19935;-79
2022/08/03 09:19:01;;;;;;;;;;;;;;;;;;5027635;28;19924;-79
2022/08/03 09:21:47;;;;;;;;;;;;;;;;;;5028550;28;20385;-78
2022/08/03 09:24:34;;;;;;;;;;;;;;;;;;5026851;28;19913;-79
2022/08/03 09:27:20;;;;;;;;;;;;;;;;;;5028587;28;20585;-79
2022/08/03 09:30:06;;;;;;;;;;;;;;;;;;5029996;28;19936;-78
2022/08/03 09:32:53;;;;;;;;;;;;;;;;;;5028033;28;19929;-79
2022/08/03 09:35:40;;;;;;;;;;;;;;;;;;5024648;28;19917;-78
2022/08/03 09:38:26;;;;;;;;;;;;;;;;;;5027790;28;20659;-79
2022/08/03 09:41:12;;;;;;;;;;;;;;;;;;5028098;28;20461;-77
2022/08/03 09:43:59;;;;;;;;;;;;;;;;;;5020946;28;19910;-74
2022/08/03 09:46:45;;;;;;;;;;;;;;;;;;5026142;28;20337;-75
2022/08/03 09:49:32;;;;;;;;;;;;;;;;;;5026167;28;19925;-76
2022/08/03 09:52:21;;;;;;;;;;;;;;;;;;5022763;28;19923;-78
2022/08/03 09:55:07;;;;;;;;;;;;;;;;;;5022994;28;19940;-77
2022/08/03 09:57:54;;;;;;;;;;;;;;;;;;5027210;28;19932;-77
2022/08/03 10:00:40;;;;;;;;;;;;;;;;;;5024320;28;19924;-77
2022/08/03 10:03:26;;;;;;;;;;;;;;;;;;5023621;28;20317;-79
2022/08/03 10:06:13;;;;;;;;;;;;;;;;;;5024662;28;19932;-79
2022/08/03 10:08:59;;;;;;;;;;;;;;;;;;5025719;28;19917;-79
2022/08/03 10:11:46;;;;;;;;;;;;;;;;;;5028948;28;19917;-80
2022/08/03 10:14:32;;;;;;;;;;;;;;;;;;5027894;28;19909;-80
2022/08/03 10:17:19;;;;;;;;;;;;;;;;;;5019315;28;19913;-83
2022/08/03 10:20:05;;;;;;;;;;;;;;;;;;5021626;28;19940;-82
2022/08/03 10:22:52;;;;;;;;;;;;;;;;;;5028378;28;19913;-83
2022/08/03 10:25:40;;;;;;;;;;;;;;;;;;5025203;28;19913;-83
2022/08/03 10:28:27;;;;;;;;;;;;;;;;;;5025614;28;19917;-83
2022/08/03 10:31:13;;;;;;;;;;;;;;;;;;5026260;28;19917;-82
2022/08/03 10:34:00;;;;;;;;;;;;;;;;;;5017184;28;20553;-83
2022/08/03 10:36:46;;;;;;;;;;;;;;;;;;5024994;28;19910;-84
2022/08/03 10:39:33;;;;;;;;;;;;;;;;;;5020947;28;20293;-83
2022/08/03 10:42:19;;;;;;;;;;;;;;;;;;5025787;28;19920;-83
2022/08/03 10:45:06;;;;;;;;;;;;;;;;;;5025642;28;19921;-84
2022/08/03 10:47:52;;;;;;;;;;;;;;;;;;5009782;28;19921;-82
2022/08/03 10:50:40;;;;;;;;;;;;;;;;;;5018360;28;19920;-83
2022/08/03 10:53:27;;;;;;;;;;;;;;;;;;5022290;28;19924;-86
2022/08/03 10:59:19;;;;;;;;;;;;;;;;;;5021057;28;19921;-84
2022/08/03 11:02:08;;;;;;;;;;;;;;;;;;5026469;28;19918;-86
2022/08/03 11:04:55;;;;;;;;;;;;;;;;;;5027343;28;19913;-78
2022/08/03 11:07:41;;;;;;;;;;;;;;;;;;5026381;28;20478;-76
2022/08/03 11:10:28;;;;;;;;;;;;;;;;;;5022113;28;19925;-78
2022/08/03 11:13:14;;;;;;;;;;;;;;;;;;5025483;28;20289;-82
2022/08/03 11:16:00;;;;;;;;;;;;;;;;;;5025420;28;19919;-82
2022/08/03 11:18:47;;;;;;;;;;;;;;;;;;5030870;28;19909;-79
2022/08/03 11:21:33;;;;;;;;;;;;;;;;;;5031563;28;20389;-78
2022/08/03 11:24:20;;;;;;;;;;;;;;;;;;5029538;28;19921;-81
2022/08/03 11:27:06;;;;;;;;;;;;;;;;;;5028951;28;19921;-79
2022/08/03 11:29:53;;;;;;;;;;;;;;;;;;5032038;28;19936;-79
2022/08/03 11:32:40;;;;;;;;;;;;;;;;;;5017760;28;19920;-79
2022/08/03 11:35:27;;;;;;;;;;;;;;;;;;5029841;28;19921;-79
2022/08/03 11:38:14;;;;;;;;;;;;;;;;;;5032305;28;19916;-79
2022/08/03 11:41:01;;;;;;;;;;;;;;;;;;5031047;28;19917;-79
2022/08/03 11:43:47;;;;;;;;;;;;;;;;;;5029374;28;19937;-80
2022/08/03 11:46:34;;;;;;;;;;;;;;;;;;5032959;28;19963;-80
2022/08/03 11:49:22;;;;;;;;;;;;;;;;;;5031182;28;19913;-79
2022/08/03 11:52:09;;;;;;;;;;;;;;;;;;5032061;28;19916;-79
2022/08/03 11:54:55;;;;;;;;;;;;;;;;;;5032312;28;19913;-79
2022/08/03 11:57:42;;;;;;;;;;;;;;;;;;5026637;28;20638;-80
2022/08/03 12:00:29;;;;;;;;;;;;;;;;;;5030398;28;20400;-79
2022/08/03 12:03:15;;;;;;;;;;;;;;;;;;5028707;28;19913;-83
2022/08/03 12:06:03;;;;;;;;;;;;;;;;;;5030374;28;19921;-83
2022/08/03 12:08:50;;;;;;;;;;;;;;;;;;5030937;28;19913;-81
2022/08/03 12:11:36;;;;;;;;;;;;;;;;;;5033938;28;19951;-76
2022/08/03 12:14:22;;;;;;;;;;;;;;;;;;5018484;28;19909;-80
2022/08/03 12:17:09;;;;;;;;;;;;;;;;;;5031720;28;19916;-77
2022/08/03 12:19:55;;;;;;;;;;;;;;;;;;5029568;28;19940;-77
2022/08/03 12:22:42;;;;;;;;;;;;;;;;;;5027737;28;19920;-76
2022/08/03 12:25:28;;;;;;;;;;;;;;;;;;5032828;28;19939;-76
2022/08/03 12:28:15;;;;;;;;;;;;;;;;;;5011682;28;19926;-77
2022/08/03 12:31:02;;;;;;;;;;;;;;;;;;5011819;28;20305;-76
2022/08/03 12:33:48;;;;;;;;;;;;;;;;;;5029465;28;20338;-77
2022/08/03 12:36:35;;;;;;;;;;;;;;;;;;5026155;28;19909;-78
2022/08/03 12:39:21;;;;;;;;;;;;;;;;;;5028440;28;20369;-77
2022/08/03 12:42:08;;;;;;;;;;;;;;;;;;5029079;28;20058;-79
2022/08/03 12:44:54;;;;;;;;;;;;;;;;;;5027193;28;19910;-80
2022/08/03 12:47:41;;;;;;;;;;;;;;;;;;5026509;28;19928;-82
2022/08/03 12:50:27;;;;;;;;;;;;;;;;;;5027915;28;20400;-78
2022/08/03 12:53:14;;;;;;;;;;;;;;;;;;5026051;28;19925;-77
2022/08/03 12:56:00;;;;;;;;;;;;;;;;;;5024578;28;19917;-80
2022/08/03 12:58:47;;;;;;;;;;;;;;;;;;5026268;28;19952;-79
2022/08/03 13:01:33;;;;;;;;;;;;;;;;;;5024479;28;20416;-79
2022/08/03 13:04:20;;;;;;;;;;;;;;;;;;5023467;28;19920;-78
2022/08/03 13:07:06;;;;;;;;;;;;;;;;;;5026010;28;19929;-77
2022/08/03 13:09:53;;;;;;;;;;;;;;;;;;5025398;28;19913;-77
2022/08/03 13:12:39;;;;;;;;;;;;;;;;;;5028729;28;19917;-77
2022/08/03 13:15:27;;;;;;;;;;;;;;;;;;5021651;28;19917;-78
2022/08/03 13:18:13;;;;;;;;;;;;;;;;;;5026433;28;19917;-78
2022/08/03 13:20:59;;;;;;;;;;;;;;;;;;5026618;28;19913;-79
2022/08/03 13:23:46;;;;;;;;;;;;;;;;;;5025363;28;19925;-79
2022/08/03 13:26:32;;;;;;;;;;;;;;;;;;5024246;28;19928;-77
2022/08/03 13:29:19;;;;;;;;;;;;;;;;;;5027244;28;19913;-78
2022/08/03 13:32:06;;;;;;;;;;;;;;;;;;5027707;28;19913;-78
2022/08/03 13:34:52;;;;;;;;;;;;;;;;;;5024482;28;19915;-78
2022/08/03 13:37:39;;;;;;;;;;;;;;;;;;5026589;28;19920;-77
2022/08/03 13:40:25;;;;;;;;;;;;;;;;;;5020446;28;19916;-77
2022/08/03 13:43:12;;;;;;;;;;;;;;;;;;5020984;28;20444;-78
2022/08/03 13:45:58;;;;;;;;;;;;;;;;;;5028607;28;19920;-78
2022/08/03 13:48:44;;;;;;;;;;;;;;;;;;5023575;28;19924;-78
2022/08/03 13:51:31;;;;;;;;;;;;;;;;;;5028809;28;19913;-78
2022/08/03 13:54:18;;;;;;;;;;;;;;;;;;5020027;28;20571;-77
2022/08/03 13:57:04;;;;;;;;;;;;;;;;;;5027681;28;19924;-76
2022/08/03 13:59:51;;;;;;;;;;;;;;;;;;5027479;28;19924;-77
2022/08/03 14:02:37;;;;;;;;;;;;;;;;;;5022000;28;19913;-77
2022/08/03 14:05:24;;;;;;;;;;;;;;;;;;5027428;28;20557;-75
2022/08/03 14:08:10;;;;;;;;;;;;;;;;;;5030036;28;20657;-79
2022/08/03 14:10:57;;;;;;;;;;;;;;;;;;5025264;28;19909;-79
2022/08/03 14:13:43;;;;;;;;;;;;;;;;;;5030332;28;19910;-78
2022/08/03 14:16:30;;;;;;;;;;;;;;;;;;5024143;28;19913;-79
2022/08/03 14:19:16;;;;;;;;;;;;;;;;;;5023840;28;19917;-78
2022/08/03 14:22:03;;;;;;;;;;;;;;;;;;5025717;28;20285;-79
2022/08/03 14:24:49;;;;;;;;;;;;;;;;;;5026918;28;19916;-80
2022/08/03 14:27:36;;;;;;;;;;;;;;;;;;5008266;28;20306;-78
2022/08/03 14:30:22;;;;;;;;;;;;;;;;;;5021936;28;20020;-79
2022/08/03 14:33:09;;;;;;;;;;;;;;;;;;5022394;28;20391;-78
2022/08/03 14:35:55;;;;;;;;;;;;;;;;;;5022327;28;19997;-79
2022/08/03 14:38:42;;;;;;;;;;;;;;;;;;5023829;28;19919;-78
2022/08/03 14:41:28;;;;;;;;;;;;;;;;;;5023856;28;20642;-78
2022/08/03 14:44:15;;;;;;;;;;;;;;;;;;5022470;28;19920;-79
2022/08/03 14:47:01;;;;;;;;;;;;;;;;;;5021155;28;19929;-79
2022/08/03 14:49:48;;;;;;;;;;;;;;;;;;5023731;28;19918;-78
2022/08/03 14:52:34;;;;;;;;;;;;;;;;;;5018972;28;19924;-79
2022/08/03 14:55:21;;;;;;;;;;;;;;;;;;5021234;28;19929;-79
2022/08/03 14:58:07;;;;;;;;;;;;;;;;;;5022633;28;19948;-79
2022/08/03 15:00:54;;;;;;;;;;;;;;;;;;5022151;28;19921;-79
2022/08/03 15:03:40;;;;;;;;;;;;;;;;;;5010989;28;19937;-78
2022/08/03 15:06:27;;;;;;;;;;;;;;;;;;5015790;28;19925;-79
2022/08/03 15:09:13;;;;;;;;;;;;;;;;;;5022809;28;20412;-79
2022/08/03 15:12:00;;;;;;;;;;;;;;;;;;5023345;28;19937;-78
2022/08/03 15:14:46;;;;;;;;;;;;;;;;;;5023905;28;19919;-78
2022/08/03 15:17:32;;;;;;;;;;;;;;;;;;5025096;28;20281;-80
2022/08/03 15:20:19;;;;;;;;;;;;;;;;;;5023520;28;19913;-79
2022/08/03 15:23:05;;;;;;;;;;;;;;;;;;5026218;28;19913;-78
2022/08/03 15:25:52;;;;;;;;;;;;;;;;;;5022724;28;20298;-78
2022/08/03 15:28:38;;;;;;;;;;;;;;;;;;5011414;28;19932;-78
2022/08/03 15:31:25;;;;;;;;;;;;;;;;;;5021756;28;19920;-79
2022/08/03 15:34:11;;;;;;;;;;;;;;;;;;5022737;28;19992;-78
2022/08/03 15:36:58;;;;;;;;;;;;;;;;;;5023210;28;19913;-79
2022/08/03 15:39:44;;;;;;;;;;;;;;;;;;5022862;28;19920;-78
2022/08/03 15:42:31;;;;;;;;;;;;;;;;;;5023387;28;19913;-79
2022/08/03 15:45:17;;;;;;;;;;;;;;;;;;5018280;28;20408;-76
2022/08/03 15:48:04;;;;;;;;;;;;;;;;;;5009919;28;19921;-78
2022/08/03 15:50:50;;;;;;;;;;;;;;;;;;5020002;28;20522;-78
2022/08/03 15:53:36;;;;;;;;;;;;;;;;;;5019214;28;19924;-78
2022/08/03 15:56:23;;;;;;;;;;;;;;;;;;5021379;28;19913;-78
2022/08/03 15:59:09;;;;;;;;;;;;;;;;;;5014439;28;19917;-78
2022/08/03 16:01:56;;;;;;;;;;;;;;;;;;5010904;28;19937;-77
2022/08/03 16:04:42;;;;;;;;;;;;;;;;;;5024714;28;19917;-78
2022/08/03 16:07:41;;;;;;;;;;;;;;;;;;5026301;28;20397;-78
2022/08/03 16:10:29;;;;;;;;;;;;;;;;;;5020927;28;19913;-78
2022/08/03 16:13:15;;;;;;;;;;;;;;;;;;5003869;28;20420;-77
2022/08/03 16:16:05;;;;;;;;;;;;;;;;;;5022124;28;19917;-77
2022/08/03 16:18:51;;;;;;;;;;;;;;;;;;5023166;28;19924;-76
2022/08/03 16:21:38;;;;;;;;;;;;;;;;;;5024534;28;19913;-75
2022/08/03 16:24:24;;;;;;;;;;;;;;;;;;5026709;28;19913;-75
2022/08/03 16:27:11;;;;;;;;;;;;;;;;;;5025785;28;19920;-75
2022/08/03 16:29:57;;;;;;;;;;;;;;;;;;5026008;28;20399;-76
2022/08/03 16:32:44;;;;;;;;;;;;;;;;;;5015349;28;19928;-75
2022/08/03 16:35:30;;;;;;;;;;;;;;;;;;5024485;28;19913;-74
2022/08/03 16:38:17;;;;;;;;;;;;;;;;;;5019194;28;20429;-75
2022/08/03 16:41:03;;;;;;;;;;;;;;;;;;5014427;28;20439;-75
2022/08/03 16:43:50;;;;;;;;;;;;;;;;;;5024742;28;19924;-74
2022/08/03 16:46:36;;;;;;;;;;;;;;;;;;4999435;28;20500;-76
2022/08/03 16:49:23;;;;;;;;;;;;;;;;;;5013820;28;20300;-76
2022/08/03 16:52:09;;;;;;;;;;;;;;;;;;5025352;28;19913;-76
2022/08/03 16:54:56;;;;;;;;;;;;;;;;;;5016640;28;19913;-76
2022/08/03 16:57:42;;;;;;;;;;;;;;;;;;5017717;28;20364;-76
2022/08/03 17:00:29;;;;;;;;;;;;;;;;;;5023241;28;19913;-75
2022/08/03 17:03:15;;;;;;;;;;;;;;;;;;5015271;28;19920;-75
2022/08/03 17:06:02;;;;;;;;;;;;;;;;;;5025655;28;19920;-75
2022/08/03 17:08:48;;;;;;;;;;;;;;;;;;5025922;28;19944;-75
2022/08/03 17:11:34;;;;;;;;;;;;;;;;;;5021043;28;19924;-75
2022/08/03 17:14:21;;;;;;;;;;;;;;;;;;5024279;28;19913;-75
2022/08/03 17:17:08;;;;;;;;;;;;;;;;;;5026206;28;20361;-75
2022/08/03 17:19:54;;;;;;;;;;;;;;;;;;5026107;28;20003;-76
2022/08/03 17:22:41;;;;;;;;;;;;;;;;;;5015948;28;19920;-75
2022/08/03 17:25:27;;;;;;;;;;;;;;;;;;5022639;28;19964;-75
2022/08/03 17:28:14;;;;;;;;;;;;;;;;;;5019242;28;19928;-74
2022/08/03 17:31:17;;;;;;;;;;;;;;;;;;5026193;28;19917;-76
2022/08/03 17:34:03;;;;;;;;;;;;;;;;;;5026433;28;19913;-74
2022/08/03 17:36:49;;;;;;;;;;;;;;;;;;5021678;28;19917;-74
2022/08/03 17:39:37;;;;;;;;;;;;;;;;;;5025349;28;19920;-74
2022/08/03 17:42:24;;;;;;;;;;;;;;;;;;5013813;28;19936;-75
2022/08/03 17:45:10;;;;;;;;;;;;;;;;;;5022629;28;19913;-76
2022/08/03 17:47:56;;;;;;;;;;;;;;;;;;5018290;28;19928;-75
2022/08/03 17:50:43;;;;;;;;;;;;;;;;;;5018483;28;20412;-77
2022/08/03 17:53:29;;;;;;;;;;;;;;;;;;5021519;28;19913;-73
2022/08/03 17:56:16;;;;;;;;;;;;;;;;;;5010206;28;20360;-76
2022/08/03 17:59:02;;;;;;;;;;;;;;;;;;5020841;28;19913;-74
2022/08/03 18:04:54;;;;;;;;;;;;;;;;;;5026050;28;19917;-81
2022/08/03 18:07:41;;;;;;;;;;;;;;;;;;5026022;28;19925;-78
2022/08/03 18:10:28;;;;;;;;;;;;;;;;;;5021148;28;19918;-78
2022/08/03 18:13:14;;;;;;;;;;;;;;;;;;5030063;28;19943;-88
2022/08/03 18:16:01;;;;;;;;;;;;;;;;;;5028164;28;19917;-88
2022/08/03 18:18:52;;;;;;;;;;;;;;;;;;5024513;28;20337;-80
2022/08/03 18:21:39;;;;;;;;;;;;;;;;;;5021566;28;19921;-79
2022/08/03 18:24:25;;;;;;;;;;;;;;;;;;5023680;28;20301;-80
2022/08/03 18:27:12;;;;;;;;;;;;;;;;;;5022925;28;19927;-79
2022/08/03 18:29:59;;;;;;;;;;;;;;;;;;5025144;28;19917;-79
2022/08/03 18:32:45;;;;;;;;;;;;;;;;;;5023829;28;19918;-81
2022/08/03 18:35:34;;;;;;;;;;;;;;;;;;5024748;28;20531;-82
2022/08/03 18:38:20;;;;;;;;;;;;;;;;;;5028483;28;19913;-82
2022/08/03 18:41:07;;;;;;;;;;;;;;;;;;5027849;28;19923;-88
2022/08/03 18:43:53;;;;;;;;;;;;;;;;;;5031843;28;20314;-91
2022/08/03 18:46:40;;;;;;;;;;;;;;;;;;5029610;28;20027;-86
2022/08/03 18:49:26;;;;;;;;;;;;;;;;;;5024737;28;19924;-86
2022/08/03 18:52:13;;;;;;;;;;;;;;;;;;5027743;28;19909;-86
2022/08/03 18:54:59;;;;;;;;;;;;;;;;;;5028169;28;19924;-86
2022/08/03 18:57:45;;;;;;;;;;;;;;;;;;5032203;28;20503;-87
2022/08/03 19:00:32;;;;;;;;;;;;;;;;;;5030905;28;19917;-88
2022/08/03 19:03:18;;;;;;;;;;;;;;;;;;5028813;28;20590;-88
2022/08/03 19:06:05;;;;;;;;;;;;;;;;;;5025583;28;20461;-85
2022/08/03 19:08:51;;;;;;;;;;;;;;;;;;5019780;28;19925;-85
2022/08/03 19:11:38;;;;;;;;;;;;;;;;;;5033013;28;19923;-86
2022/08/03 19:14:24;;;;;;;;;;;;;;;;;;5029693;28;19909;-86